Grandville, MI (49418)

10:17 AM EDT on September 01, 2014 (GMT -0400)
Canaltown Woods | Change Station
CLOSE
Current Station
Personal Weather Station
Location: Grandville, MI
Elevation: 689 ft
Nearby Weather Stations

Elev 689 ft 42.87 °N, 85.77 °W | Updated 2 seconds ago

Mostly Cloudy
Mostly Cloudy
73.9 °F
Feels Like 73.9 °F
N
2.9
Wind Variable Wind from SSE
Gusts 4.9 mph

Today
High -- | Low -- °F
--% Chance of Precip.
Yesterday
High -- | Low -- °F
Precip. -- in
7:07 AM 8:17 PM
Waxing Crescent, 41% visible
Pressure 29.80 in
Visibility 7.0 miles
Clouds Overcast 1100 ft
Dew Point 74 °F
Humidity 99%
Rainfall 0.00 in
Snow Depth Not available.
UV 1 out of 12
Pollen 9.10 out of 12
Ozone Good
PM2.5 Good
Flu Activity Not available.
SPECI KGRR 011413Z 19014KT 7SM OVC011 24/23 A2980 RMK AO2 T02390233 $

More Conditions Fewer Conditions

Pressure 29.80 in
Visibility 7.0 miles
Clouds Overcast 1100 ft
Dew Point 74 °F
Humidity 99%
Rainfall 0.00 in
Snow Depth Not available.
UV 1 out of 12
Pollen 9.10 out of 12
Ozone Good
PM2.5 Good
Flu Activity Not available.
SPECI KGRR 011413Z 19014KT 7SM OVC011 24/23 A2980 RMK AO2 T02390233 $

More Conditions Fewer Conditions

10-Day Weather Forecast

Almanac

Astronomy

Sep. 01, 2014 Rise Set
Actual Time 7:07 AM EDT 8:17 PM EDT
Civil Twilight 6:38 AM EDT 8:46 PM EDT
Nautical Twilight 6:03 AM EDT 9:21 PM EDT
Astronomical Twilight 5:26 AM EDT 9:58 PM EDT
Moon 2:02 PM EDT No Moon Set
Length of Visible Light 14h 08m
Length of Day
13h 09m
Tomorrow will be 2m 47s shorter.
Waxing Crescent, 41% of the Moon is Illuminated
Today
Waxing Crescent
Sep 2
First Quarter
Sep 8
Full
Sep 15
Last Quarter
Sep 24
New

Today's Extremes

State Highs State Lows

Community

WunderPhotos

Upload Photos

1,749,237 photos uploaded!

Nearby

Air Quality

  Air Quality AQ Index Pollutant
Yesterday Good
OZONE
Yesterday Good
PM2.5
Current Good
PM2.5
Current Good
OZONE
Monday Good
OZONE
Monday Good
PM2.5
Tuesday Good
OZONE
Tuesday Good
PM2.5

Snow Depth

Station Depth Elevation
No new snow has been reported.

Earthquake Activity

City Distance Mag. Time & Date
No recent earthquake activity has been reported nearby.
Minimum magnitude displayed is 2.5.

Coastal Water Temperatures

Place Temperature
Holland, MI 71.1 °F

Nearby Weather Stations